Time;durP1;ratioP1;P1;durP2;ratioP2;P2;SDS_P1;SDS_P2;PMS_P1;PMS_P2;Temp;Humidity;BMP_temperature;BMP_pressure;BME280_temperature;BME280_humidity;BME280_pressure;Samples;Min_cycle;Max_cycle;Signal;HPM_P1;HPM_P2
2022/02/08 00:01:59;;;;;;;6.15;3.00;;;3.80;99.90;;;;;;5058874;28;20226;-81
2022/02/08 00:04:29;;;;;;;11.68;2.85;;;3.80;99.90;;;;;;5073945;28;20629;-82
2022/02/08 00:06:57;;;;;;;7.65;2.42;;;3.70;99.90;;;;;;5060362;28;20202;-83
2022/02/08 00:09:25;;;;;;;12.52;3.75;;;3.70;99.90;;;;;;5064816;28;20219;-82
2022/02/08 00:11:53;;;;;;;10.65;3.22;;;3.70;99.90;;;;;;5073260;28;20230;-80
2022/02/08 00:14:20;;;;;;;12.13;2.80;;;3.70;99.90;;;;;;5069285;28;20195;-82
2022/02/08 00:16:46;;;;;;;10.18;2.78;;;3.60;99.90;;;;;;5062117;28;20225;-83
2022/02/08 00:19:13;;;;;;;13.77;3.20;;;3.60;99.90;;;;;;5060135;28;20551;-83
2022/02/08 00:21:40;;;;;;;8.73;2.65;;;3.70;99.90;;;;;;5063917;28;20222;-82
2022/02/08 00:24:07;;;;;;;8.52;2.97;;;3.70;99.90;;;;;;5073971;28;20662;-83
2022/02/08 00:26:33;;;;;;;7.00;2.67;;;3.70;99.90;;;;;;5073031;28;20207;-81
2022/02/08 00:29:01;;;;;;;12.10;3.38;;;3.70;99.90;;;;;;5071566;28;20210;-82
2022/02/08 00:31:28;;;;;;;9.75;3.30;;;3.80;99.90;;;;;;5060615;28;20258;-83
2022/02/08 00:33:54;;;;;;;13.07;3.05;;;3.80;99.90;;;;;;5059051;28;20241;-82
2022/02/08 00:36:22;;;;;;;11.45;3.90;;;3.90;99.90;;;;;;5059368;28;20256;-82
2022/02/08 00:38:49;;;;;;;6.53;3.63;;;3.80;99.90;;;;;;5059000;28;20207;-82
2022/02/08 00:41:16;;;;;;;7.32;2.70;;;3.80;99.90;;;;;;5059527;28;20223;-83
2022/02/08 00:43:50;;;;;;;11.48;3.30;;;3.80;99.90;;;;;;5063257;28;20261;-82
2022/02/08 00:46:24;;;;;;;17.48;3.63;;;3.90;99.90;;;;;;5071171;28;20188;-81
2022/02/08 00:48:57;;;;;;;14.32;2.67;;;3.90;99.90;;;;;;5072642;28;20186;-82
2022/02/08 00:51:29;;;;;;;7.22;2.60;;;4.00;99.90;;;;;;5072364;22;20214;-88
2022/02/08 00:53:56;;;;;;;7.13;2.20;;;7.10;99.90;;;;;;5018074;28;20247;-87
2022/02/08 00:56:26;;;;;;;10.88;2.72;;;3.90;99.90;;;;;;5018176;28;20204;-87
2022/02/08 00:58:54;;;;;;;13.20;4.22;;;4.00;99.90;;;;;;5018021;28;20259;-88
2022/02/08 01:01:22;;;;;;;8.43;2.70;;;4.00;99.90;;;;;;5017367;28;20224;-87
2022/02/08 01:03:49;;;;;;;10.98;2.40;;;;;;;;;;5017165;28;20208;-87
2022/02/08 01:06:17;;;;;;;7.40;2.42;;;4.00;99.90;;;;;;5016355;28;20262;-87
2022/02/08 01:08:44;;;;;;;11.38;2.80;;;4.10;99.90;;;;;;5017527;28;20208;-87
2022/02/08 01:11:12;;;;;;;14.95;2.67;;;4.30;99.90;;;;;;5015741;28;20784;-87
2022/02/08 01:13:41;;;;;;;12.48;3.22;;;4.10;99.90;;;;;;5017499;28;20723;-87
2022/02/08 01:16:08;;;;;;;7.60;2.13;;;3.90;99.90;;;;;;5018301;28;20208;-87
2022/02/08 01:18:40;;;;;;;8.82;2.40;;;3.90;99.90;;;;;;5018508;28;20663;-87
2022/02/08 01:21:07;;;;;;;7.80;3.20;;;4.10;99.90;;;;;;5018968;28;20185;-87
2022/02/08 01:23:34;;;;;;;8.07;2.53;;;4.00;99.90;;;;;;5018481;28;20209;-87
2022/02/08 01:26:03;;;;;;;3.83;2.20;;;4.00;99.90;;;;;;5018543;28;20214;-87
2022/02/08 01:28:38;;;;;;;9.88;2.67;;;4.00;99.90;;;;;;5019237;28;20204;-87
2022/02/08 01:31:08;;;;;;;7.22;2.33;;;3.90;99.90;;;;;;5016508;28;20283;-87
2022/02/08 01:33:54;;;;;;;8.02;3.28;;;3.90;99.90;;;;;;5016767;28;20196;-87
2022/02/08 01:39:12;;;;;;;15.73;3.40;;;3.90;99.90;;;;;;5016634;28;20198;-87
2022/02/08 01:41:56;;;;;;;10.93;2.90;;;3.90;99.90;;;;;;5016959;28;20596;-87
2022/02/08 01:44:30;;;;;;;12.75;3.47;;;3.80;99.90;;;;;;5018267;28;20188;-87
2022/02/08 01:47:05;;;;;;;11.48;2.63;;;3.80;99.90;;;;;;5019476;28;20243;-87
2022/02/08 01:49:37;;;;;;;11.98;3.20;;;3.70;99.90;;;;;;5020079;28;20209;-87
2022/02/08 01:52:06;;;;;;;12.10;4.47;;;3.70;99.90;;;;;;5019712;28;20232;-88
2022/02/08 01:54:33;;;;;;;7.57;3.20;;;3.70;99.90;;;;;;5020145;28;20207;-88
2022/02/08 01:56:59;;;;;;;11.68;2.97;;;3.60;99.90;;;;;;5019782;28;20213;-87
2022/02/08 01:59:27;;;;;;;9.45;3.55;;;3.60;99.90;;;;;;5025228;28;20208;-87
2022/02/08 02:01:54;;;;;;;8.68;2.75;;;3.60;99.90;;;;;;5025204;28;20228;-87
2022/02/08 02:04:21;;;;;;;12.30;3.75;;;3.50;99.90;;;;;;5019858;28;20267;-87
2022/02/08 02:06:49;;;;;;;7.53;2.90;;;3.40;99.90;;;;;;5031694;28;20232;-87
2022/02/08 02:09:16;;;;;;;13.70;2.70;;;3.40;99.90;;;;;;5024032;28;20196;-88
2022/02/08 02:11:43;;;;;;;8.88;2.75;;;3.40;99.90;;;;;;5019747;28;20259;-87
2022/02/08 02:14:09;;;;;;;6.63;2.45;;;3.20;99.90;;;;;;5019722;28;20362;-87
2022/02/08 02:16:49;;;;;;;9.70;2.80;;;3.30;99.90;;;;;;5019526;28;20200;-87
2022/02/08 02:19:16;;;;;;;16.90;2.75;;;3.30;99.90;;;;;;5020267;28;20218;-87
2022/02/08 02:21:43;;;;;;;10.07;3.38;;;3.30;99.90;;;;;;5019547;28;20304;-87
2022/02/08 02:24:11;;;;;;;6.75;3.05;;;3.30;99.90;;;;;;5019618;28;20240;-88
2022/02/08 02:26:37;;;;;;;22.35;4.22;;;3.30;99.90;;;;;;5021347;28;20235;-88
2022/02/08 02:29:04;;;;;;;12.75;2.70;;;3.30;99.90;;;;;;5019704;28;20204;-88
2022/02/08 02:31:31;;;;;;;5.15;2.47;;;3.30;99.90;;;;;;5020007;28;20282;-87
2022/02/08 02:33:57;;;;;;;9.05;2.97;;;3.30;99.90;;;;;;5019565;28;20208;-87
2022/02/08 02:36:24;;;;;;;8.32;2.08;;;3.40;99.90;;;;;;5019144;28;20196;-87
2022/02/08 02:38:51;;;;;;;5.95;3.92;;;3.50;99.90;;;;;;5022492;28;20255;-88
2022/02/08 02:41:19;;;;;;;7.43;2.35;;;3.50;99.90;;;;;;5019427;28;20625;-88
2022/02/08 02:43:45;;;;;;;8.13;2.50;;;3.60;99.90;;;;;;5019007;28;20208;-88
2022/02/08 02:46:12;;;;;;;7.28;2.40;;;3.60;99.90;;;;;;5021086;28;20239;-88
2022/02/08 02:48:39;;;;;;;7.82;3.03;;;3.60;99.90;;;;;;5021428;28;20235;-87
2022/02/08 02:51:05;;;;;;;5.68;2.80;;;3.70;99.90;;;;;;5019530;28;20236;-88
2022/02/08 02:53:32;;;;;;;9.32;2.97;;;3.60;99.90;;;;;;5019378;28;20223;-88
2022/02/08 02:55:59;;;;;;;11.02;4.38;;;3.60;99.90;;;;;;5018355;28;20618;-88
2022/02/08 02:58:30;;;;;;;6.95;3.28;;;3.70;99.90;;;;;;5019003;28;20213;-87
2022/02/08 03:01:14;;;;;;;7.32;2.75;;;;;;;;;;5019875;28;20185;-88
2022/02/08 03:03:53;;;;;;;12.43;2.63;;;3.50;99.90;;;;;;5040443;28;20187;-86
2022/02/08 03:17:53;;;;;;;9.02;3.08;;;3.40;99.90;;;;;;5033105;28;20248;-87
2022/02/08 03:20:19;;;;;;;15.60;3.15;;;3.40;99.90;;;;;;5031319;28;20195;-87
2022/02/08 03:22:46;;;;;;;6.40;2.65;;;3.30;99.90;;;;;;5030931;28;20224;-87
2022/02/08 03:25:13;;;;;;;10.05;2.75;;;3.30;99.90;;;;;;5020839;28;20205;-87
2022/02/08 03:27:40;;;;;;;13.98;3.17;;;3.40;99.90;;;;;;5019792;28;20200;-87
2022/02/08 03:30:09;;;;;;;10.77;3.20;;;3.30;99.90;;;;;;5019439;28;20224;-87
2022/02/08 03:32:36;;;;;;;6.60;2.70;;;3.30;99.90;;;;;;5031266;28;20220;-87
2022/02/08 03:35:04;;;;;;;11.15;4.32;;;3.30;99.90;;;;;;5034240;28;20209;-87
2022/02/08 03:37:32;;;;;;;12.20;3.17;;;3.30;99.90;;;;;;5034536;28;20215;-87
2022/02/08 03:40:05;;;;;;;19.45;3.97;;;3.40;99.90;;;;;;5034943;28;20208;-87
2022/02/08 03:42:36;;;;;;;5.65;3.60;;;3.30;99.90;;;;;;5034911;28;20220;-87
2022/02/08 03:45:05;;;;;;;9.35;3.47;;;3.30;99.90;;;;;;5035101;28;20224;-87
2022/02/08 03:47:34;;;;;;;10.88;3.58;;;3.20;99.90;;;;;;5038444;28;20204;-86
2022/02/08 03:50:03;;;;;;;13.55;2.60;;;3.30;99.90;;;;;;5039266;28;20200;-87
2022/02/08 03:52:30;;;;;;;6.78;3.33;;;3.20;99.90;;;;;;5038929;28;20220;-86
2022/02/08 03:54:57;;;;;;;7.53;2.90;;;3.40;99.90;;;;;;5039499;28;20188;-86
2022/02/08 03:57:24;;;;;;;9.98;2.85;;;3.40;99.90;;;;;;5039410;28;20185;-86
2022/02/08 03:59:52;;;;;;;8.85;4.13;;;3.40;99.90;;;;;;5039513;28;20215;-86
2022/02/08 04:02:38;;;;;;;9.32;3.60;;;3.40;99.90;;;;;;5039250;28;20211;-86
2022/02/08 04:05:13;;;;;;;15.05;3.67;;;3.50;99.90;;;;;;5039289;28;20204;-87
2022/02/08 04:07:44;;;;;;;9.93;3.53;;;3.50;99.90;;;;;;5039154;28;20191;-86
2022/02/08 04:10:19;;;;;;;15.20;4.10;;;3.20;99.90;;;;;;5039229;28;20200;-86
2022/02/08 04:12:54;;;;;;;11.40;2.97;;;3.40;99.90;;;;;;5033158;28;20226;-87
2022/02/08 04:15:41;;;;;;;8.98;3.20;;;3.50;99.90;;;;;;5030507;28;20193;-87
2022/02/08 04:18:30;;;;;;;6.00;3.70;;;3.50;99.90;;;;;;5027733;28;20299;-87
2022/02/08 04:32:19;;;;;;;12.07;3.20;;;3.60;99.90;;;;;;5029188;28;20231;-87
2022/02/08 04:34:59;;;;;;;12.63;4.40;;;3.50;99.90;;;;;;5027637;28;20211;-87
2022/02/08 04:43:03;;;;;;;10.05;3.65;;;3.60;99.90;;;;;;5021553;28;20426;-86
2022/02/08 04:45:35;;;;;;;6.88;3.85;;;3.60;99.90;;;;;;5022182;28;20204;-86
2022/02/08 04:48:08;;;;;;;7.50;2.95;;;3.70;99.90;;;;;;5022922;28;20249;-87
2022/02/08 04:50:36;;;;;;;10.52;3.75;;;3.60;99.90;;;;;;5021586;28;20216;-86
2022/02/08 04:53:11;;;;;;;10.07;4.07;;;3.60;99.90;;;;;;5020346;28;20232;-87
2022/02/08 04:55:47;;;;;;;7.47;3.00;;;3.70;99.90;;;;;;5022189;28;20200;-87
2022/02/08 04:58:23;;;;;;;7.85;2.85;;;3.60;99.90;;;;;;5035692;28;20202;-87
2022/02/08 05:01:02;;;;;;;15.90;3.10;;;3.90;99.90;;;;;;5021604;28;20647;-87
2022/02/08 05:42:41;;;;;;;7.20;2.95;;;3.80;99.90;;;;;;5031340;28;20259;-87
2022/02/08 05:45:23;;;;;;;4.93;3.80;;;4.00;99.90;;;;;;5023093;28;20189;-87
2022/02/08 05:47:53;;;;;;;9.52;3.50;;;4.00;99.90;;;;;;5023434;28;20201;-86
2022/02/08 05:50:36;;;;;;;10.65;3.45;;;4.00;99.90;;;;;;5023441;28;20227;-87
2022/02/08 05:53:07;;;;;;;8.57;3.25;;;4.00;99.90;;;;;;5024121;28;20240;-86
2022/02/08 05:55:34;;;;;;;4.47;4.03;;;4.00;99.90;;;;;;5021884;28;20303;-86
2022/02/08 05:58:04;;;;;;;13.68;4.50;;;4.00;99.90;;;;;;5022248;28;20243;-86
2022/02/08 06:00:31;;;;;;;6.45;4.05;;;4.00;99.90;;;;;;5023098;28;20292;-86
2022/02/08 06:03:02;;;;;;;15.48;5.40;;;4.00;99.90;;;;;;5022012;28;20239;-86
2022/02/08 06:05:29;;;;;;;12.15;5.63;;;4.00;99.90;;;;;;5022917;28;20208;-86
2022/02/08 06:08:03;;;;;;;8.50;4.90;;;4.00;99.90;;;;;;5021941;28;20215;-87
2022/02/08 06:10:46;;;;;;;9.10;5.43;;;4.10;99.90;;;;;;5029601;28;20200;-87
2022/02/08 06:13:15;;;;;;;10.52;5.60;;;3.90;99.90;;;;;;5030796;28;20239;-87
2022/02/08 06:15:46;;;;;;;15.95;5.55;;;3.90;99.90;;;;;;5024089;28;20745;-87
2022/02/08 06:18:13;;;;;;;11.63;5.65;;;4.00;99.90;;;;;;5029424;28;20200;-87
2022/02/08 06:20:40;;;;;;;10.05;6.05;;;4.00;99.90;;;;;;5037739;28;20192;-87
2022/02/08 06:23:08;;;;;;;11.60;5.90;;;3.90;99.90;;;;;;5022099;28;20239;-87
2022/02/08 06:25:35;;;;;;;14.43;6.82;;;3.90;99.90;;;;;;5020746;28;20219;-87
2022/02/08 06:28:02;;;;;;;9.15;6.45;;;4.00;99.90;;;;;;5021182;28;20722;-87
2022/02/08 06:30:31;;;;;;;10.93;6.90;;;4.00;99.90;;;;;;5021531;28;20262;-87
2022/02/08 06:35:56;;;;;;;19.58;7.97;;;4.10;99.90;;;;;;5018547;28;20204;-87
2022/02/08 06:38:25;;;;;;;10.65;6.75;;;4.00;99.90;;;;;;5022480;28;20255;-87
2022/02/08 06:41:03;;;;;;;9.55;6.20;;;3.90;99.90;;;;;;5022373;28;20260;-87
2022/02/08 06:43:38;;;;;;;15.90;8.23;;;4.10;99.90;;;;;;5020925;28;20200;-86
2022/02/08 06:46:08;;;;;;;13.20;7.32;;;4.10;99.90;;;;;;5021719;28;20208;-86
2022/02/08 06:48:41;;;;;;;12.30;7.32;;;5.90;99.90;;;;;;5022272;28;20671;-87
2022/02/08 06:51:09;;;;;;;13.20;7.43;;;;;;;;;;5020142;28;20303;-87
2022/02/08 07:37:21;;;;;;;13.38;7.20;;;5.00;99.90;;;;;;5072023;28;20245;-88
2022/02/08 07:39:52;;;;;;;20.20;9.07;;;4.60;99.90;;;;;;5075983;28;20214;-87
2022/02/08 07:42:19;;;;;;;11.70;8.10;;;4.40;99.90;;;;;;5076756;28;20191;-88
2022/02/08 07:44:47;;;;;;;8.52;7.10;;;3.90;99.90;;;;;;5076746;28;20187;-87
2022/02/08 07:47:14;;;;;;;14.50;7.35;;;4.40;99.90;;;;;;5065787;28;20203;-88
2022/02/08 07:49:41;;;;;;;19.88;8.18;;;4.30;99.90;;;;;;5065139;28;20207;-87
2022/02/08 07:52:09;;;;;;;13.60;7.78;;;4.30;99.90;;;;;;5061552;28;20219;-88
2022/02/08 07:54:38;;;;;;;14.25;8.48;;;4.40;99.90;;;;;;5062430;28;20205;-87
2022/02/08 07:57:08;;;;;;;14.70;8.45;;;4.40;99.90;;;;;;5071587;28;20206;-87
2022/02/08 07:59:35;;;;;;;18.52;7.88;;;6.30;99.90;;;;;;5077099;28;20199;-87
2022/02/08 08:02:02;;;;;;;19.08;8.20;;;4.40;99.90;;;;;;5077892;28;20218;-87
2022/02/08 08:04:28;;;;;;;11.88;7.85;;;4.40;99.90;;;;;;5077898;28;20179;-87
2022/02/08 08:06:55;;;;;;;12.50;7.78;;;4.40;99.90;;;;;;5076580;28;20219;-87
2022/02/08 08:09:22;;;;;;;15.15;7.47;;;4.30;99.90;;;;;;5071934;28;20198;-87
2022/02/08 08:11:52;;;;;;;15.77;7.55;;;4.40;99.90;;;;;;5075435;28;20233;-87
2022/02/08 08:14:22;;;;;;;16.60;7.75;;;4.40;99.90;;;;;;5072185;28;20206;-87
2022/02/08 08:16:54;;;;;;;13.63;8.13;;;4.50;99.90;;;;;;5071157;28;20377;-87
2022/02/08 08:19:24;;;;;;;11.50;7.07;;;4.40;99.90;;;;;;5060937;28;20198;-87
2022/02/08 08:21:51;;;;;;;14.90;7.47;;;4.50;99.90;;;;;;5059062;28;20180;-87
2022/02/08 08:24:18;;;;;;;16.40;6.18;;;4.50;99.90;;;;;;5059666;28;20203;-87
2022/02/08 08:26:45;;;;;;;16.05;7.70;;;4.50;99.90;;;;;;5059725;28;20222;-87
2022/02/08 08:29:13;;;;;;;10.48;7.32;;;4.50;99.90;;;;;;5058769;28;20540;-87
2022/02/08 08:31:40;;;;;;;8.38;6.50;;;4.70;99.90;;;;;;5059791;28;20760;-87
2022/02/08 08:34:07;;;;;;;13.35;8.45;;;4.70;99.90;;;;;;5059259;28;20203;-87
2022/02/08 08:36:34;;;;;;;8.57;6.93;;;4.60;99.90;;;;;;5063898;28;20231;-86
2022/02/08 08:39:02;;;;;;;13.80;7.88;;;4.80;99.90;;;;;;5063068;28;20195;-87
2022/02/08 08:41:34;;;;;;;12.77;8.02;;;;;;;;;;5070522;28;20218;-87
2022/02/08 08:52:36;;;;;;;10.10;7.65;;;4.70;99.90;;;;;;5059874;28;20219;-87
2022/02/08 08:55:03;;;;;;;17.55;8.73;;;4.80;99.90;;;;;;5064527;28;20225;-87
2022/02/08 08:57:30;;;;;;;12.93;8.63;;;4.80;99.90;;;;;;5074327;28;20207;-87
2022/02/08 08:59:57;;;;;;;12.13;8.45;;;4.90;99.90;;;;;;5076783;28;20202;-88
2022/02/08 09:02:25;;;;;;;11.13;8.00;;;5.00;99.90;;;;;;5078220;28;20256;-87
2022/02/08 09:04:54;;;;;;;9.90;8.60;;;4.80;99.90;;;;;;5072142;28;20203;-87
2022/02/08 09:07:21;;;;;;;18.23;10.05;;;5.00;99.90;;;;;;5063159;28;20214;-88
2022/02/08 09:09:52;;;;;;;16.48;8.75;;;4.80;99.90;;;;;;5063279;28;20560;-87
2022/02/08 09:12:25;;;;;;;12.52;7.70;;;5.10;99.90;;;;;;5063786;28;20242;-87
2022/02/08 09:15:14;;;;;;;12.55;8.93;;;5.30;99.90;;;;;;5064809;28;20561;-86
2022/02/08 09:21:01;;;;;;;16.80;10.38;;;5.00;99.90;;;;;;5070215;28;20190;-87
2022/02/08 09:26:33;;;;;;;11.50;7.55;;;5.30;99.90;;;;;;5079869;28;20225;-87
2022/02/08 09:29:05;;;;;;;8.93;7.05;;;5.50;99.90;;;;;;5072079;28;20293;-86
2022/02/08 09:31:33;;;;;;;12.63;9.45;;;5.40;99.90;;;;;;5072815;28;20226;-87
2022/02/08 09:34:01;;;;;;;13.18;8.98;;;5.60;99.90;;;;;;5067469;28;20206;-87
2022/02/08 09:36:27;;;;;;;15.13;10.30;;;5.50;99.90;;;;;;5062136;28;20241;-88
2022/02/08 09:38:58;;;;;;;14.02;9.07;;;5.50;99.90;;;;;;5062043;28;20302;-87
2022/02/08 09:41:27;;;;;;;11.10;9.55;;;5.40;99.90;;;;;;5062756;28;20191;-86
2022/02/08 09:43:55;;;;;;;19.02;8.85;;;5.60;99.90;;;;;;5062348;28;20203;-88
2022/02/08 09:46:21;;;;;;;12.48;8.82;;;5.70;99.90;;;;;;5064225;28;20223;-87
2022/02/08 09:48:55;;;;;;;11.95;7.90;;;5.80;99.90;;;;;;5062638;28;20638;-87
2022/02/08 09:51:23;;;;;;;12.98;9.02;;;5.90;99.90;;;;;;5061994;28;20222;-87
2022/02/08 09:53:55;;;;;;;12.05;8.77;;;5.80;99.90;;;;;;5061861;28;20213;-87
2022/02/08 09:56:23;;;;;;;10.27;7.15;;;5.90;99.90;;;;;;5061767;28;20223;-87
2022/02/08 09:58:50;;;;;;;12.43;8.48;;;;;;;;;;5061344;28;20293;-87
2022/02/08 10:01:21;;;;;;;12.63;9.38;;;5.70;99.90;;;;;;5061227;28;20203;-87
2022/02/08 10:03:53;;;;;;;17.92;9.43;;;6.30;99.90;;;;;;5061039;28;20183;-87
2022/02/08 10:06:20;;;;;;;9.85;6.88;;;6.10;99.90;;;;;;5060464;28;20680;-87
2022/02/08 10:09:00;;;;;;;12.82;7.25;;;6.20;99.90;;;;;;5059915;28;20209;-87
2022/02/08 10:11:30;;;;;;;10.85;6.78;;;6.20;99.90;;;;;;5061123;28;20191;-87
2022/02/08 10:14:03;;;;;;;10.32;6.15;;;6.20;99.90;;;;;;5061520;28;20192;-87
2022/02/08 10:20:04;;;;;;;11.27;7.05;;;6.00;99.90;;;;;;5080516;28;20201;-87
2022/02/08 10:22:32;;;;;;;10.10;8.30;;;6.20;99.90;;;;;;5076496;28;20234;-87
2022/02/08 10:25:03;;;;;;;12.82;7.57;;;6.20;99.90;;;;;;5063642;28;20702;-86
2022/02/08 10:27:34;;;;;;;11.85;6.60;;;5.80;99.90;;;;;;5062621;28;20203;-88
2022/02/08 10:38:19;;;;;;;12.85;7.45;;;6.50;99.90;;;;;;5069928;28;20190;-88
2022/02/08 10:40:47;;;;;;;9.90;6.05;;;6.40;99.90;;;;;;5073218;28;20211;-87
2022/02/08 10:43:17;;;;;;;11.52;7.38;;;6.40;99.90;;;;;;5069961;28;20207;-87
2022/02/08 10:45:45;;;;;;;12.90;6.60;;;6.50;99.90;;;;;;5069667;28;20709;-87
2022/02/08 10:48:14;;;;;;;6.68;6.07;;;6.50;99.90;;;;;;5077210;28;20182;-87
2022/02/08 10:50:57;;;;;;;7.47;6.07;;;6.50;99.90;;;;;;5079008;28;20175;-87
2022/02/08 10:53:28;;;;;;;8.90;7.50;;;6.50;99.90;;;;;;5073118;28;20215;-87
2022/02/08 10:56:01;;;;;;;12.77;7.35;;;6.50;99.90;;;;;;5073572;28;20219;-87
2022/02/08 10:58:33;;;;;;;9.50;7.10;;;6.60;99.90;;;;;;5078551;28;20198;-86
2022/02/08 11:01:06;;;;;;;7.15;6.30;;;6.60;99.90;;;;;;5079318;28;20171;-87
2022/02/08 11:03:39;;;;;;;11.10;7.85;;;6.30;99.90;;;;;;5079500;28;20187;-87
2022/02/08 11:06:18;;;;;;;11.55;6.82;;;6.60;99.90;;;;;;5078764;28;20241;-86
2022/02/08 11:11:42;;;;;;;10.38;7.65;;;6.60;99.90;;;;;;5067415;28;20195;-87
2022/02/08 11:14:22;;;;;;;12.48;7.20;;;6.70;99.90;;;;;;5061701;28;20560;-87
2022/02/08 11:19:50;;;;;;;12.82;6.88;;;6.80;99.90;;;;;;5041695;28;20241;-88
2022/02/08 11:22:27;;;;;;;11.20;6.65;;;6.90;99.90;;;;;;5062016;28;20187;-88
2022/02/08 11:25:01;;;;;;;14.55;8.32;;;6.90;99.90;;;;;;5059444;28;20230;-87
2022/02/08 11:27:38;;;;;;;11.65;7.45;;;6.90;99.90;;;;;;5060423;28;20218;-88
2022/02/08 11:30:11;;;;;;;14.45;8.23;;;6.90;99.90;;;;;;5061479;28;20285;-87
2022/02/08 11:32:55;;;;;;;9.40;7.47;;;7.30;99.90;;;;;;5061173;28;20207;-87
2022/02/08 11:46:51;;;;;;;13.57;8.48;;;7.10;99.90;;;;;;5074718;28;20198;-87
2022/02/08 11:49:41;;;;;;;10.52;8.23;;;7.00;99.90;;;;;;5078550;28;20176;-87
2022/02/08 11:55:23;;;;;;;12.70;9.70;;;7.20;99.90;;;;;;5069836;28;20215;-86
2022/02/08 11:58:15;;;;;;;12.32;9.40;;;7.10;99.90;;;;;;5078555;28;20237;-86
2022/02/08 12:00:46;;;;;;;15.23;9.50;;;7.30;99.90;;;;;;5079038;28;20195;-86
2022/02/08 12:06:24;;;;;;;10.57;7.90;;;7.40;99.90;;;;;;5078687;28;20225;-86
2022/02/08 12:08:54;;;;;;;14.50;9.60;;;7.40;99.90;;;;;;5077740;28;20221;-87
2022/02/08 12:11:35;;;;;;;19.80;9.45;;;7.40;99.90;;;;;;5074548;28;20199;-88
2022/02/08 12:31:18;;;;;;;15.70;10.53;;;7.60;99.90;;;;;;5077779;28;20419;-87
2022/02/08 12:33:58;;;;;;;17.15;11.23;;;7.70;99.90;;;;;;5078066;28;20447;-87
2022/02/08 12:36:44;;;;;;;19.48;10.35;;;7.70;99.90;;;;;;5078254;28;20225;-88
2022/02/08 12:50:58;;;;;;;24.90;12.07;;;7.90;99.90;;;;;;5069834;28;20232;-87
2022/02/08 12:56:32;;;;;;;18.73;11.53;;;8.10;99.90;;;;;;5051654;28;20473;-88
2022/02/08 12:59:12;;;;;;;13.97;10.17;;;8.10;99.90;;;;;;5072036;28;20475;-86
2022/02/08 13:02:05;;;;;;;17.00;10.40;;;8.20;99.90;;;;;;5076601;28;20444;-85
2022/02/08 13:04:50;;;;;;;15.10;10.10;;;8.40;99.90;;;;;;5074236;28;20412;-87
2022/02/08 15:00:38;;;;;;;15.40;10.00;;;8.70;99.90;;;;;;5017138;22;20995;-83
2022/02/08 15:06:02;;;;;;;15.50;10.50;;;8.70;99.90;;;;;;5049493;28;20398;-83
2022/02/08 15:08:30;;;;;;;11.60;8.67;;;8.70;99.90;;;;;;5050366;28;20442;-83
2022/02/08 15:11:05;;;;;;;13.03;9.87;;;8.70;99.90;;;;;;5046255;28;20565;-83
2022/02/08 15:13:31;;;;;;;9.63;8.60;;;8.70;99.90;;;;;;5048016;28;20451;-82
2022/02/08 15:16:07;;;;;;;13.50;9.93;;;8.70;99.90;;;;;;5046184;28;20478;-82
2022/02/08 15:18:34;;;;;;;13.00;9.20;;;8.70;99.90;;;;;;5043955;28;20785;-83
2022/02/08 15:21:01;;;;;;;13.07;8.50;;;8.70;99.90;;;;;;5046057;28;20481;-83
2022/02/08 15:23:28;;;;;;;10.37;8.40;;;8.80;99.90;;;;;;5044181;28;20450;-83
2022/02/08 15:25:58;;;;;;;13.50;9.63;;;;;;;;;;5045964;28;20446;-83
2022/02/08 15:28:26;;;;;;;10.47;8.27;;;8.80;99.90;;;;;;5043685;28;20446;-83
2022/02/08 15:30:55;;;;;;;10.73;8.63;;;8.80;99.90;;;;;;5044103;28;20466;-83
2022/02/08 15:33:24;;;;;;;9.93;8.80;;;9.00;99.90;;;;;;5042335;28;20878;-83
2022/02/08 15:35:51;;;;;;;10.30;7.67;;;8.90;99.90;;;;;;5042786;28;20447;-83
2022/02/08 15:38:17;;;;;;;12.67;7.90;;;8.90;99.90;;;;;;5043825;28;20413;-83
2022/02/08 15:40:45;;;;;;;10.23;6.90;;;9.00;99.90;;;;;;5055862;28;20429;-81
2022/02/08 15:43:13;;;;;;;10.33;8.43;;;8.80;99.90;;;;;;5057590;28;20442;-82
2022/02/08 15:45:46;;;;;;;9.40;6.90;;;9.00;99.90;;;;;;5057970;28;20453;-83
2022/02/08 15:48:17;;;;;;;9.87;7.80;;;9.00;99.90;;;;;;5058412;28;20412;-84
2022/02/08 15:50:53;;;;;;;12.37;7.93;;;8.70;99.90;;;;;;5057591;28;20510;-82
2022/02/08 15:53:36;;;;;;;7.63;6.93;;;9.00;99.90;;;;;;5048426;28;20463;-82
2022/02/08 15:56:31;;;;;;;11.03;7.97;;;9.00;99.90;;;;;;5045547;28;21042;-82
2022/02/08 16:07:09;;;;;;;8.20;6.93;;;9.00;99.90;;;;;;5043476;28;20433;-83
2022/02/08 16:09:41;;;;;;;12.43;8.13;;;8.90;99.90;;;;;;5045147;28;20469;-82
2022/02/08 16:12:30;;;;;;;8.57;7.27;;;8.90;99.90;;;;;;5046609;28;20447;-83
2022/02/08 16:15:22;;;;;;;9.03;6.30;;;8.90;99.90;;;;;;5044530;28;20436;-82
2022/02/08 16:20:41;;;;;;;13.10;7.10;;;8.80;99.90;;;;;;5040602;28;20458;-83
2022/02/08 16:23:33;;;;;;;9.57;8.00;;;8.80;99.90;;;;;;5041920;28;20430;-82
2022/02/08 16:26:10;;;;;;;7.23;6.40;;;8.80;99.90;;;;;;5039799;28;20490;-82
2022/02/08 16:28:52;;;;;;;11.03;8.10;;;8.90;99.90;;;;;;5040865;28;20484;-83
2022/02/08 16:31:56;;;;;;;9.17;7.13;;;8.90;99.90;;;;;;5040428;28;20451;-83
2022/02/08 16:53:46;;;;;;;9.57;8.57;;;8.70;99.90;;;;;;5042383;28;20517;-83
2022/02/08 16:56:28;;;;;;;9.40;7.97;;;8.70;99.90;;;;;;5043412;28;20405;-82
2022/02/08 16:58:57;;;;;;;10.60;8.40;;;8.70;99.90;;;;;;5045550;28;20438;-84
2022/02/08 17:01:27;;;;;;;8.87;6.90;;;8.70;99.90;;;;;;5055818;28;20438;-82
2022/02/08 17:03:53;;;;;;;10.10;7.63;;;8.70;99.90;;;;;;5056412;28;20435;-81
2022/02/08 17:06:22;;;;;;;9.57;8.53;;;8.70;99.90;;;;;;5054890;28;20445;-83
2022/02/08 17:08:54;;;;;;;8.50;7.63;;;8.80;99.90;;;;;;5056715;28;20436;-82
2022/02/08 17:11:31;;;;;;;10.30;7.33;;;8.70;99.90;;;;;;5052469;28;20407;-83
2022/02/08 17:16:52;;;;;;;8.70;7.80;;;8.70;99.90;;;;;;5048724;28;20419;-83
2022/02/08 17:46:58;;;;;;;14.43;9.27;;;8.70;99.90;;;;;;5056038;28;20409;-83
2022/02/08 17:49:25;;;;;;;12.80;10.07;;;8.70;99.90;;;;;;5050420;28;20466;-83
2022/02/08 17:51:52;;;;;;;13.07;9.50;;;8.70;99.90;;;;;;5049365;28;20450;-83
2022/02/08 17:54:19;;;;;;;10.40;8.83;;;8.40;99.90;;;;;;5047494;28;20518;-83
2022/02/08 17:56:46;;;;;;;11.07;8.50;;;8.70;99.90;;;;;;5048655;28;20500;-83
2022/02/08 17:59:14;;;;;;;10.53;9.30;;;8.70;99.90;;;;;;5052180;28;20462;-83
2022/02/08 18:01:41;;;;;;;12.38;9.27;;;9.00;99.90;;;;;;5050638;28;20835;-82
2022/02/08 18:04:07;;;;;;;13.70;9.80;;;8.70;99.90;;;;;;5051927;28;20204;-82
2022/02/08 18:06:34;;;;;;;13.55;9.90;;;8.50;99.90;;;;;;5050453;28;20447;-82
2022/02/08 18:09:02;;;;;;;12.40;10.20;;;8.70;99.90;;;;;;5047742;28;20215;-83
2022/02/08 18:11:35;;;;;;;11.43;9.07;;;8.70;99.90;;;;;;5048392;28;20449;-82
2022/02/08 18:14:02;;;;;;;12.43;10.50;;;8.80;99.90;;;;;;5052116;28;20554;-82
2022/02/08 18:16:34;;;;;;;13.60;9.57;;;8.80;99.90;;;;;;5053704;28;20467;-83
2022/02/08 18:19:08;;;;;;;10.20;9.10;;;8.60;99.90;;;;;;5051027;28;20415;-82
2022/02/08 18:21:38;;;;;;;9.80;8.80;;;8.60;99.90;;;;;;5049421;28;20963;-83
2022/02/08 19:08:48;;;;;;;17.50;13.30;;;8.60;99.90;;;;;;5040902;28;20402;-84
2022/02/08 19:11:42;;;;;;;21.73;14.43;;;8.90;99.90;;;;;;5058262;28;20443;-85
2022/02/08 19:14:36;;;;;;;20.00;12.93;;;8.60;99.90;;;;;;5059107;28;20192;-84
2022/02/08 19:17:14;;;;;;;15.90;11.67;;;8.60;99.90;;;;;;5054158;28;20957;-85
2022/02/08 19:19:49;;;;;;;18.90;12.67;;;8.60;99.90;;;;;;5049355;28;20501;-84
2022/02/08 19:22:17;;;;;;;16.97;11.83;;;8.60;99.90;;;;;;5053793;28;20465;-84
2022/02/08 19:24:47;;;;;;;15.57;11.27;;;8.60;99.90;;;;;;5042014;28;20409;-84
2022/02/08 19:27:17;;;;;;;17.40;12.90;;;8.60;99.90;;;;;;5050587;28;20421;-83
2022/02/08 19:29:44;;;;;;;18.30;13.30;;;8.60;99.90;;;;;;5051132;28;20474;-86
2022/02/08 19:32:11;;;;;;;18.57;13.03;;;8.60;99.90;;;;;;5043024;28;20485;-83
2022/02/08 19:34:40;;;;;;;18.57;13.10;;;8.60;99.90;;;;;;5040429;28;20601;-83
2022/02/08 19:37:08;;;;;;;18.03;12.40;;;8.60;99.90;;;;;;5040532;28;20410;-82
2022/02/08 19:39:37;;;;;;;20.90;13.57;;;8.60;99.90;;;;;;5041064;28;20538;-84
2022/02/08 19:42:06;;;;;;;19.50;12.30;;;8.60;99.90;;;;;;5041271;28;20413;-83
2022/02/08 19:44:32;;;;;;;18.83;13.00;;;8.60;99.90;;;;;;5043021;28;20413;-82
2022/02/08 19:46:59;;;;;;;20.90;13.37;;;8.60;99.90;;;;;;5042584;28;20479;-83
2022/02/08 19:49:26;;;;;;;20.00;12.60;;;8.60;99.90;;;;;;5041409;28;20470;-83
2022/02/08 19:51:54;;;;;;;19.70;13.07;;;8.60;99.90;;;;;;5040592;28;20421;-83
2022/02/08 19:54:24;;;;;;;19.63;13.87;;;8.60;99.90;;;;;;5040119;28;20535;-83
2022/02/08 19:56:57;;;;;;;21.20;14.70;;;8.60;99.90;;;;;;5040568;28;20442;-83
2022/02/08 19:59:33;;;;;;;22.07;13.53;;;8.60;99.90;;;;;;5042106;28;20489;-82
2022/02/08 20:02:01;;;;;;;18.13;12.60;;;8.60;99.90;;;;;;5042607;28;20442;-82
2022/02/08 20:04:28;;;;;;;22.87;13.47;;;8.60;99.90;;;;;;5040775;28;20472;-82
2022/02/08 20:06:57;;;;;;;20.07;14.37;;;8.60;99.90;;;;;;5041154;28;20545;-81
2022/02/08 20:09:24;;;;;;;23.30;14.80;;;8.50;99.90;;;;;;5039926;28;20440;-81
2022/02/08 20:11:52;;;;;;;22.80;14.83;;;8.60;99.90;;;;;;5040037;28;20564;-81